sensor_id;sensor_type;location;lat;lon;timestamp;pressure;altitude;pressure_sealevel;temperature;humidity
13974;BME280;7060;43.770;4.008;2023-11-19T00:01:08;101820.03;;;6.38;70.89
13974;BME280;7060;43.770;4.008;2023-11-19T00:03:37;101817.63;;;6.33;70.68
13974;BME280;7060;43.770;4.008;2023-11-19T00:06:06;101815.06;;;6.32;70.68
13974;BME280;7060;43.770;4.008;2023-11-19T00:08:35;101804.44;;;6.32;70.92
13974;BME280;7060;43.770;4.008;2023-11-19T00:11:05;101802.75;;;6.31;71.10
13974;BME280;7060;43.770;4.008;2023-11-19T00:13:35;101805.97;;;6.36;71.00
13974;BME280;7060;43.770;4.008;2023-11-19T00:16:05;101793.75;;;6.33;70.98
13974;BME280;7060;43.770;4.008;2023-11-19T00:18:37;101789.56;;;6.29;71.04
13974;BME280;7060;43.770;4.008;2023-11-19T00:21:06;101791.63;;;6.24;71.11
13974;BME280;7060;43.770;4.008;2023-11-19T00:23:35;101760.88;;;6.06;71.01
13974;BME280;7060;43.770;4.008;2023-11-19T00:26:04;101792.75;;;6.20;71.13
13974;BME280;7060;43.770;4.008;2023-11-19T00:28:38;101783.34;;;6.14;71.27
13974;BME280;7060;43.770;4.008;2023-11-19T00:31:07;101789.13;;;6.07;71.03
13974;BME280;7060;43.770;4.008;2023-11-19T00:33:36;101790.34;;;6.01;70.95
13974;BME280;7060;43.770;4.008;2023-11-19T00:36:16;101789.94;;;5.93;70.72
13974;BME280;7060;43.770;4.008;2023-11-19T00:38:45;101790.09;;;5.90;71.18
13974;BME280;7060;43.770;4.008;2023-11-19T00:41:15;101795.59;;;5.87;70.92
13974;BME280;7060;43.770;4.008;2023-11-19T00:43:45;101792.09;;;5.87;71.72
13974;BME280;7060;43.770;4.008;2023-11-19T00:46:15;101783.00;;;5.91;71.50
13974;BME280;7060;43.770;4.008;2023-11-19T00:48:43;101780.09;;;5.95;71.42
13974;BME280;7060;43.770;4.008;2023-11-19T00:51:14;101785.56;;;5.92;71.16
13974;BME280;7060;43.770;4.008;2023-11-19T00:53:44;101785.66;;;5.91;70.96
13974;BME280;7060;43.770;4.008;2023-11-19T00:56:13;101781.38;;;5.88;71.29
13974;BME280;7060;43.770;4.008;2023-11-19T00:58:42;101777.88;;;5.88;70.98
13974;BME280;7060;43.770;4.008;2023-11-19T01:01:13;101778.72;;;5.88;71.31
13974;BME280;7060;43.770;4.008;2023-11-19T01:03:42;101771.72;;;5.87;71.14
13974;BME280;7060;43.770;4.008;2023-11-19T01:06:11;101769.22;;;5.84;71.31
13974;BME280;7060;43.770;4.008;2023-11-19T01:08:42;101760.63;;;5.81;71.51
13974;BME280;7060;43.770;4.008;2023-11-19T01:11:19;101765.06;;;5.80;71.12
13974;BME280;7060;43.770;4.008;2023-11-19T01:13:49;101751.91;;;5.63;71.62
13974;BME280;7060;43.770;4.008;2023-11-19T01:16:20;101772.28;;;5.78;71.40
13974;BME280;7060;43.770;4.008;2023-11-19T01:18:49;101763.47;;;5.77;71.09
13974;BME280;7060;43.770;4.008;2023-11-19T01:21:25;101767.31;;;5.72;71.50
13974;BME280;7060;43.770;4.008;2023-11-19T01:23:55;101766.19;;;5.76;71.71
13974;BME280;7060;43.770;4.008;2023-11-19T01:26:24;101766.97;;;5.78;71.63
13974;BME280;7060;43.770;4.008;2023-11-19T01:28:53;101762.50;;;5.78;71.34
13974;BME280;7060;43.770;4.008;2023-11-19T01:31:24;101757.88;;;5.82;71.36
13974;BME280;7060;43.770;4.008;2023-11-19T01:33:53;101764.31;;;5.78;71.13
13974;BME280;7060;43.770;4.008;2023-11-19T01:36:21;101760.13;;;5.74;71.44
13974;BME280;7060;43.770;4.008;2023-11-19T01:38:50;101756.69;;;5.72;71.46
13974;BME280;7060;43.770;4.008;2023-11-19T01:41:19;101756.03;;;5.68;71.20
13974;BME280;7060;43.770;4.008;2023-11-19T01:43:49;101751.75;;;5.66;71.62
13974;BME280;7060;43.770;4.008;2023-11-19T01:46:18;101750.03;;;5.65;71.51
13974;BME280;7060;43.770;4.008;2023-11-19T01:48:49;101757.91;;;5.66;71.24
13974;BME280;7060;43.770;4.008;2023-11-19T01:51:18;101749.34;;;5.61;71.50
13974;BME280;7060;43.770;4.008;2023-11-19T01:53:48;101758.25;;;5.60;71.58
13974;BME280;7060;43.770;4.008;2023-11-19T01:56:18;101766.50;;;5.56;71.49
13974;BME280;7060;43.770;4.008;2023-11-19T01:58:48;101758.72;;;5.53;71.25
13974;BME280;7060;43.770;4.008;2023-11-19T02:01:18;101770.63;;;5.45;71.48
13974;BME280;7060;43.770;4.008;2023-11-19T02:03:49;101768.13;;;5.42;71.72
13974;BME280;7060;43.770;4.008;2023-11-19T02:06:18;101763.44;;;5.48;71.99
13974;BME280;7060;43.770;4.008;2023-11-19T02:08:46;101765.81;;;5.52;71.22
13974;BME280;7060;43.770;4.008;2023-11-19T02:11:15;101753.59;;;5.50;71.53
13974;BME280;7060;43.770;4.008;2023-11-19T02:13:44;101766.25;;;5.44;71.49
13974;BME280;7060;43.770;4.008;2023-11-19T02:16:13;101760.00;;;5.45;71.46
13974;BME280;7060;43.770;4.008;2023-11-19T02:18:42;101761.03;;;5.43;71.29
13974;BME280;7060;43.770;4.008;2023-11-19T02:21:12;101757.53;;;5.42;71.50
13974;BME280;7060;43.770;4.008;2023-11-19T02:23:42;101755.06;;;5.39;71.66
13974;BME280;7060;43.770;4.008;2023-11-19T02:26:16;101756.94;;;5.37;71.07
13974;BME280;7060;43.770;4.008;2023-11-19T02:28:48;101744.88;;;5.32;71.29
13974;BME280;7060;43.770;4.008;2023-11-19T02:31:17;101743.38;;;5.28;71.48
13974;BME280;7060;43.770;4.008;2023-11-19T02:33:46;101737.47;;;5.23;71.37
13974;BME280;7060;43.770;4.008;2023-11-19T02:36:17;101734.28;;;5.16;71.60
13974;BME280;7060;43.770;4.008;2023-11-19T02:38:47;101734.47;;;5.13;72.24
13974;BME280;7060;43.770;4.008;2023-11-19T02:41:16;101734.38;;;5.15;72.08
13974;BME280;7060;43.770;4.008;2023-11-19T02:43:45;101736.94;;;5.16;71.91
13974;BME280;7060;43.770;4.008;2023-11-19T02:46:17;101739.78;;;5.13;71.64
13974;BME280;7060;43.770;4.008;2023-11-19T02:48:46;101733.88;;;5.08;71.78
13974;BME280;7060;43.770;4.008;2023-11-19T02:51:15;101738.22;;;5.09;71.76
13974;BME280;7060;43.770;4.008;2023-11-19T02:53:46;101731.31;;;5.06;72.00
13974;BME280;7060;43.770;4.008;2023-11-19T02:56:15;101731.81;;;5.13;72.36
13974;BME280;7060;43.770;4.008;2023-11-19T02:58:52;101726.78;;;5.08;72.15
13974;BME280;7060;43.770;4.008;2023-11-19T03:01:23;101710.34;;;5.02;72.11
13974;BME280;7060;43.770;4.008;2023-11-19T03:03:59;101711.97;;;5.04;72.52
13974;BME280;7060;43.770;4.008;2023-11-19T03:06:29;101723.25;;;5.08;72.27
13974;BME280;7060;43.770;4.008;2023-11-19T03:08:59;101720.69;;;5.06;72.05
13974;BME280;7060;43.770;4.008;2023-11-19T03:11:33;101681.34;;;4.83;72.43
13974;BME280;7060;43.770;4.008;2023-11-19T03:14:02;101722.56;;;5.04;71.79
13974;BME280;7060;43.770;4.008;2023-11-19T03:16:32;101723.44;;;5.05;72.03
13974;BME280;7060;43.770;4.008;2023-11-19T03:19:01;101716.41;;;5.04;72.10
13974;BME280;7060;43.770;4.008;2023-11-19T03:21:31;101711.41;;;4.99;71.85
13974;BME280;7060;43.770;4.008;2023-11-19T03:24:00;101712.59;;;4.94;72.34
13974;BME280;7060;43.770;4.008;2023-11-19T03:26:29;101713.69;;;4.90;71.97
13974;BME280;7060;43.770;4.008;2023-11-19T03:28:58;101711.75;;;4.93;72.77
13974;BME280;7060;43.770;4.008;2023-11-19T03:31:27;101707.38;;;4.92;72.11
13974;BME280;7060;43.770;4.008;2023-11-19T03:33:57;101697.47;;;4.96;72.51
13974;BME280;7060;43.770;4.008;2023-11-19T03:36:32;101700.19;;;4.94;72.03
13974;BME280;7060;43.770;4.008;2023-11-19T03:39:01;101697.94;;;4.87;72.67
13974;BME280;7060;43.770;4.008;2023-11-19T03:41:31;101695.47;;;4.84;72.00
13974;BME280;7060;43.770;4.008;2023-11-19T03:44:03;101697.94;;;4.87;72.78
13974;BME280;7060;43.770;4.008;2023-11-19T03:46:31;101686.34;;;4.89;72.54
13974;BME280;7060;43.770;4.008;2023-11-19T03:49:02;101687.03;;;4.93;72.09
13974;BME280;7060;43.770;4.008;2023-11-19T03:51:33;101683.44;;;4.94;72.50
13974;BME280;7060;43.770;4.008;2023-11-19T03:54:03;101694.06;;;4.94;72.73
13974;BME280;7060;43.770;4.008;2023-11-19T03:56:31;101691.16;;;4.98;72.42
13974;BME280;7060;43.770;4.008;2023-11-19T03:59:00;101691.16;;;4.98;72.60
13974;BME280;7060;43.770;4.008;2023-11-19T04:01:29;101678.53;;;5.02;72.47
13974;BME280;7060;43.770;4.008;2023-11-19T04:03:58;101683.75;;;5.03;71.93
13974;BME280;7060;43.770;4.008;2023-11-19T04:06:29;101690.97;;;5.01;72.12
13974;BME280;7060;43.770;4.008;2023-11-19T04:08:58;101686.00;;;4.95;72.02
13974;BME280;7060;43.770;4.008;2023-11-19T04:11:27;101680.13;;;4.90;72.17
13974;BME280;7060;43.770;4.008;2023-11-19T04:13:56;101690.63;;;4.92;72.03
13974;BME280;7060;43.770;4.008;2023-11-19T04:16:28;101685.16;;;4.95;71.69
13974;BME280;7060;43.770;4.008;2023-11-19T04:18:57;101683.69;;;4.89;72.03
13974;BME280;7060;43.770;4.008;2023-11-19T04:21:26;101691.41;;;4.94;72.42
13974;BME280;7060;43.770;4.008;2023-11-19T04:23:57;101685.94;;;4.97;72.22
13974;BME280;7060;43.770;4.008;2023-11-19T04:26:25;101680.19;;;4.89;72.05
13974;BME280;7060;43.770;4.008;2023-11-19T04:28:57;101682.38;;;4.81;71.75
13974;BME280;7060;43.770;4.008;2023-11-19T04:31:29;101691.34;;;4.78;72.38
13974;BME280;7060;43.770;4.008;2023-11-19T04:33:59;101696.56;;;4.79;72.75
13974;BME280;7060;43.770;4.008;2023-11-19T04:36:28;101700.00;;;4.82;72.50
13974;BME280;7060;43.770;4.008;2023-11-19T04:38:59;101672.81;;;4.62;71.76
13974;BME280;7060;43.770;4.008;2023-11-19T04:41:28;101698.44;;;4.77;72.67
13974;BME280;7060;43.770;4.008;2023-11-19T04:43:56;101695.63;;;4.81;72.54
13974;BME280;7060;43.770;4.008;2023-11-19T04:46:25;101704.50;;;4.79;72.51
13974;BME280;7060;43.770;4.008;2023-11-19T04:48:54;101698.28;;;4.81;72.41
13974;BME280;7060;43.770;4.008;2023-11-19T04:51:23;101695.72;;;4.79;72.74
13974;BME280;7060;43.770;4.008;2023-11-19T04:53:52;101685.97;;;4.79;72.21
13974;BME280;7060;43.770;4.008;2023-11-19T04:56:22;101689.47;;;4.80;72.81
13974;BME280;7060;43.770;4.008;2023-11-19T04:58:51;101693.91;;;4.79;72.80
13974;BME280;7060;43.770;4.008;2023-11-19T05:01:21;101687.84;;;4.77;72.88
13974;BME280;7060;43.770;4.008;2023-11-19T05:03:50;101688.88;;;4.75;72.49
13974;BME280;7060;43.770;4.008;2023-11-19T05:06:19;101680.91;;;4.75;72.41
13974;BME280;7060;43.770;4.008;2023-11-19T05:08:48;101675.06;;;4.70;72.83
13974;BME280;7060;43.770;4.008;2023-11-19T05:11:17;101655.91;;;4.65;72.74
13974;BME280;7060;43.770;4.008;2023-11-19T05:13:48;101673.34;;;4.69;72.47
13974;BME280;7060;43.770;4.008;2023-11-19T05:16:17;101666.41;;;4.66;72.83
13974;BME280;7060;43.770;4.008;2023-11-19T05:18:48;101668.97;;;4.68;72.46
13974;BME280;7060;43.770;4.008;2023-11-19T05:21:17;101680.50;;;4.67;72.93
13974;BME280;7060;43.770;4.008;2023-11-19T05:23:46;101680.44;;;4.68;72.63
13974;BME280;7060;43.770;4.008;2023-11-19T05:26:19;101686.66;;;4.67;72.69
13974;BME280;7060;43.770;4.008;2023-11-19T05:28:50;101680.69;;;4.64;73.06
13974;BME280;7060;43.770;4.008;2023-11-19T05:31:20;101690.25;;;4.66;73.15
13974;BME280;7060;43.770;4.008;2023-11-19T05:33:49;101689.31;;;4.67;73.16
13974;BME280;7060;43.770;4.008;2023-11-19T05:36:18;101680.44;;;4.68;73.11
13974;BME280;7060;43.770;4.008;2023-11-19T05:38:47;101685.56;;;4.71;72.81
13974;BME280;7060;43.770;4.008;2023-11-19T05:41:16;101674.97;;;4.71;72.68
13974;BME280;7060;43.770;4.008;2023-11-19T05:43:45;101686.50;;;4.70;72.70
13974;BME280;7060;43.770;4.008;2023-11-19T05:46:16;101677.78;;;4.68;72.05
13974;BME280;7060;43.770;4.008;2023-11-19T05:48:46;101680.69;;;4.64;72.20
13974;BME280;7060;43.770;4.008;2023-11-19T05:51:16;101685.97;;;4.64;72.31
13974;BME280;7060;43.770;4.008;2023-11-19T05:53:45;101689.66;;;4.61;72.72
13974;BME280;7060;43.770;4.008;2023-11-19T05:56:14;101694.94;;;4.61;72.40
13974;BME280;7060;43.770;4.008;2023-11-19T05:58:49;101690.25;;;4.66;72.81
13974;BME280;7060;43.770;4.008;2023-11-19T06:01:19;101693.00;;;4.65;72.33
13974;BME280;7060;43.770;4.008;2023-11-19T06:03:48;101691.59;;;4.58;72.25
13974;BME280;7060;43.770;4.008;2023-11-19T06:06:18;101695.34;;;4.54;72.97
13974;BME280;7060;43.770;4.008;2023-11-19T06:08:47;101696.22;;;4.54;72.58
13974;BME280;7060;43.770;4.008;2023-11-19T06:11:16;101694.59;;;4.52;72.44
13974;BME280;7060;43.770;4.008;2023-11-19T06:13:48;101697.22;;;4.52;72.80
13974;BME280;7060;43.770;4.008;2023-11-19T06:16:20;101696.28;;;4.53;72.76
13974;BME280;7060;43.770;4.008;2023-11-19T06:18:49;101706.38;;;4.46;72.48
13974;BME280;7060;43.770;4.008;2023-11-19T06:21:18;101711.75;;;4.44;72.57
13974;BME280;7060;43.770;4.008;2023-11-19T06:23:47;101717.91;;;4.45;72.41
13974;BME280;7060;43.770;4.008;2023-11-19T06:26:17;101722.34;;;4.44;72.48
13974;BME280;7060;43.770;4.008;2023-11-19T06:28:46;101720.81;;;4.40;72.38
13974;BME280;7060;43.770;4.008;2023-11-19T06:31:15;101724.56;;;4.36;72.75
13974;BME280;7060;43.770;4.008;2023-11-19T06:33:46;101724.78;;;4.32;73.16
13974;BME280;7060;43.770;4.008;2023-11-19T06:36:14;101724.56;;;4.36;72.88
13974;BME280;7060;43.770;4.008;2023-11-19T06:38:44;101727.72;;;4.43;73.14
13974;BME280;7060;43.770;4.008;2023-11-19T06:41:13;101730.38;;;4.43;72.90
13974;BME280;7060;43.770;4.008;2023-11-19T06:43:42;101729.44;;;4.44;72.67
13974;BME280;7060;43.770;4.008;2023-11-19T06:46:15;101644.03;;;3.92;73.06
13974;BME280;7060;43.770;4.008;2023-11-19T06:48:46;101726.03;;;4.42;72.82
13974;BME280;7060;43.770;4.008;2023-11-19T06:51:15;101725.16;;;4.41;72.87
13974;BME280;7060;43.770;4.008;2023-11-19T06:53:44;101711.06;;;4.41;72.84
13974;BME280;7060;43.770;4.008;2023-11-19T06:56:20;101712.69;;;4.43;73.12
13974;BME280;7060;43.770;4.008;2023-11-19T06:58:49;101678.31;;;4.26;73.17
13974;BME280;7060;43.770;4.008;2023-11-19T07:01:19;101715.00;;;4.50;72.45
13974;BME280;7060;43.770;4.008;2023-11-19T07:03:49;101718.56;;;4.49;72.56
13974;BME280;7060;43.770;4.008;2023-11-19T07:06:18;101707.97;;;4.49;73.06
13974;BME280;7060;43.770;4.008;2023-11-19T07:09:01;101690.22;;;4.35;72.95
13974;BME280;7060;43.770;4.008;2023-11-19T07:11:38;101713.03;;;4.53;72.97
13974;BME280;7060;43.770;4.008;2023-11-19T07:14:08;101721.91;;;4.52;73.19
13974;BME280;7060;43.770;4.008;2023-11-19T07:16:38;101715.59;;;4.55;72.88
13974;BME280;7060;43.770;4.008;2023-11-19T07:19:08;101714.25;;;4.63;73.29
13974;BME280;7060;43.770;4.008;2023-11-19T07:21:39;101726.25;;;4.70;73.02
13974;BME280;7060;43.770;4.008;2023-11-19T07:24:11;101727.88;;;4.73;73.02
13974;BME280;7060;43.770;4.008;2023-11-19T07:26:42;101726.94;;;4.74;73.50
13974;BME280;7060;43.770;4.008;2023-11-19T07:29:12;101728.97;;;4.85;73.53
13974;BME280;7060;43.770;4.008;2023-11-19T07:31:55;101730.06;;;4.81;73.50
13974;BME280;7060;43.770;4.008;2023-11-19T07:34:26;101740.97;;;4.92;73.82
13974;BME280;7060;43.770;4.008;2023-11-19T07:36:55;101741.59;;;4.97;73.84
13974;BME280;7060;43.770;4.008;2023-11-19T07:39:26;101737.81;;;5.01;73.71
13974;BME280;7060;43.770;4.008;2023-11-19T07:41:55;101741.66;;;5.11;73.95
13974;BME280;7060;43.770;4.008;2023-11-19T07:44:25;101731.53;;;5.33;74.14
13974;BME280;7060;43.770;4.008;2023-11-19T07:46:53;101729.00;;;5.62;74.28
13974;BME280;7060;43.770;4.008;2023-11-19T07:49:23;101729.78;;;6.08;75.02
13974;BME280;7060;43.770;4.008;2023-11-19T07:51:53;101730.44;;;6.40;74.48
13974;BME280;7060;43.770;4.008;2023-11-19T07:54:22;101728.19;;;6.62;74.53
13974;BME280;7060;43.770;4.008;2023-11-19T07:56:51;101736.59;;;6.83;73.54
13974;BME280;7060;43.770;4.008;2023-11-19T07:59:21;101736.28;;;7.02;72.98
13974;BME280;7060;43.770;4.008;2023-11-19T08:01:50;101729.13;;;7.17;73.46
13974;BME280;7060;43.770;4.008;2023-11-19T08:04:18;101723.69;;;7.32;73.42
13974;BME280;7060;43.770;4.008;2023-11-19T08:06:47;101724.34;;;7.48;73.48
13974;BME280;7060;43.770;4.008;2023-11-19T08:09:19;101725.16;;;7.63;73.39
13974;BME280;7060;43.770;4.008;2023-11-19T08:11:47;101728.69;;;7.76;73.61
13974;BME280;7060;43.770;4.008;2023-11-19T08:14:17;101726.59;;;7.94;73.25
13974;BME280;7060;43.770;4.008;2023-11-19T08:16:45;101727.34;;;8.09;73.48
13974;BME280;7060;43.770;4.008;2023-11-19T08:19:15;101732.50;;;8.25;74.24
13974;BME280;7060;43.770;4.008;2023-11-19T08:21:44;101730.44;;;8.41;74.38
13974;BME280;7060;43.770;4.008;2023-11-19T08:24:13;101727.31;;;8.60;74.44
13974;BME280;7060;43.770;4.008;2023-11-19T08:26:43;101722.72;;;8.74;74.07
13974;BME280;7060;43.770;4.008;2023-11-19T08:29:28;101732.75;;;8.83;73.32
13974;BME280;7060;43.770;4.008;2023-11-19T08:32:00;101732.81;;;8.95;73.32
13974;BME280;7060;43.770;4.008;2023-11-19T08:34:29;101724.03;;;9.05;73.49
13974;BME280;7060;43.770;4.008;2023-11-19T08:36:59;101731.34;;;9.14;73.92
13974;BME280;7060;43.770;4.008;2023-11-19T08:39:28;101736.78;;;9.26;73.78
13974;BME280;7060;43.770;4.008;2023-11-19T08:41:59;101731.03;;;9.43;73.65
13974;BME280;7060;43.770;4.008;2023-11-19T08:44:28;101727.13;;;9.60;73.51
13974;BME280;7060;43.770;4.008;2023-11-19T08:46:57;101731.06;;;9.78;73.24
13974;BME280;7060;43.770;4.008;2023-11-19T08:49:26;101730.78;;;9.94;72.97
13974;BME280;7060;43.770;4.008;2023-11-19T08:51:55;101730.91;;;10.03;72.68
13974;BME280;7060;43.770;4.008;2023-11-19T08:54:24;101731.16;;;10.11;72.40
13974;BME280;7060;43.770;4.008;2023-11-19T08:56:53;101731.44;;;10.19;72.32
13974;BME280;7060;43.770;4.008;2023-11-19T08:59:23;101729.22;;;10.25;72.28
13974;BME280;7060;43.770;4.008;2023-11-19T09:01:52;101737.75;;;10.30;72.47
13974;BME280;7060;43.770;4.008;2023-11-19T09:04:22;101730.22;;;10.35;72.23
13974;BME280;7060;43.770;4.008;2023-11-19T09:06:51;101725.13;;;10.43;72.13
13974;BME280;7060;43.770;4.008;2023-11-19T09:09:20;101726.31;;;10.50;71.97
13974;BME280;7060;43.770;4.008;2023-11-19T09:11:49;101727.31;;;10.60;72.04
13974;BME280;7060;43.770;4.008;2023-11-19T09:14:18;101725.75;;;10.69;72.12
13974;BME280;7060;43.770;4.008;2023-11-19T09:16:52;101723.19;;;10.78;72.15
13974;BME280;7060;43.770;4.008;2023-11-19T09:19:21;101724.41;;;10.85;72.46
13974;BME280;7060;43.770;4.008;2023-11-19T09:21:50;101724.53;;;10.95;72.59
13974;BME280;7060;43.770;4.008;2023-11-19T09:24:20;101719.25;;;11.05;72.70
13974;BME280;7060;43.770;4.008;2023-11-19T09:26:51;101713.75;;;11.17;72.41
13974;BME280;7060;43.770;4.008;2023-11-19T09:29:22;101720.06;;;11.28;72.22
13974;BME280;7060;43.770;4.008;2023-11-19T09:31:52;101712.84;;;11.39;72.95
13974;BME280;7060;43.770;4.008;2023-11-19T09:34:21;101714.75;;;11.48;72.62
13974;BME280;7060;43.770;4.008;2023-11-19T09:36:50;101716.69;;;11.58;72.68
13974;BME280;7060;43.770;4.008;2023-11-19T09:39:19;101713.09;;;11.68;72.29
13974;BME280;7060;43.770;4.008;2023-11-19T09:41:48;101720.22;;;11.79;72.25
13974;BME280;7060;43.770;4.008;2023-11-19T09:44:17;101711.38;;;11.88;71.94
13974;BME280;7060;43.770;4.008;2023-11-19T09:46:47;101717.66;;;11.98;71.26
13974;BME280;7060;43.770;4.008;2023-11-19T09:49:21;101729.91;;;12.12;71.07
13974;BME280;7060;43.770;4.008;2023-11-19T09:51:53;101726.31;;;12.23;70.67
13974;BME280;7060;43.770;4.008;2023-11-19T09:54:23;101725.28;;;12.35;70.28
13974;BME280;7060;43.770;4.008;2023-11-19T09:56:52;101720.78;;;12.45;69.91
13974;BME280;7060;43.770;4.008;2023-11-19T09:59:21;101717.03;;;12.57;69.68
13974;BME280;7060;43.770;4.008;2023-11-19T10:01:50;101692.44;;;12.52;69.81
13974;BME280;7060;43.770;4.008;2023-11-19T10:04:21;101709.50;;;12.81;69.55
13974;BME280;7060;43.770;4.008;2023-11-19T10:06:51;101712.34;;;12.89;69.25
13974;BME280;7060;43.770;4.008;2023-11-19T10:09:20;101704.31;;;12.99;68.66
13974;BME280;7060;43.770;4.008;2023-11-19T10:11:49;101697.28;;;13.08;67.88
13974;BME280;7060;43.770;4.008;2023-11-19T10:14:19;101693.91;;;13.15;67.71
13974;BME280;7060;43.770;4.008;2023-11-19T10:16:51;101693.34;;;13.21;67.02
13974;BME280;7060;43.770;4.008;2023-11-19T10:19:22;101685.56;;;13.28;66.88
13974;BME280;7060;43.770;4.008;2023-11-19T10:21:51;101681.47;;;13.34;66.26
13974;BME280;7060;43.770;4.008;2023-11-19T10:24:31;101694.09;;;13.43;66.27
13974;BME280;7060;43.770;4.008;2023-11-19T10:27:03;101681.09;;;13.48;66.17
13974;BME280;7060;43.770;4.008;2023-11-19T10:29:36;101683.91;;;13.56;65.51
13974;BME280;7060;43.770;4.008;2023-11-19T10:32:06;101687.88;;;13.62;64.72
13974;BME280;7060;43.770;4.008;2023-11-19T10:35:04;101678.66;;;13.64;64.60
13974;BME280;7060;43.770;4.008;2023-11-19T10:37:34;101671.88;;;13.70;64.57
13974;BME280;7060;43.770;4.008;2023-11-19T10:40:06;101669.63;;;13.75;64.67
13974;BME280;7060;43.770;4.008;2023-11-19T10:42:38;101668.16;;;13.80;64.09
13974;BME280;7060;43.770;4.008;2023-11-19T10:45:21;101668.31;;;13.88;64.11
13974;BME280;7060;43.770;4.008;2023-11-19T10:47:51;101659.53;;;13.96;64.22
13974;BME280;7060;43.770;4.008;2023-11-19T10:50:22;101662.16;;;14.06;63.49
13974;BME280;7060;43.770;4.008;2023-11-19T10:52:56;101663.44;;;14.11;63.20
13974;BME280;7060;43.770;4.008;2023-11-19T10:55:28;101668.09;;;14.19;63.46
13974;BME280;7060;43.770;4.008;2023-11-19T10:57:59;101617.63;;;14.03;62.92
13974;BME280;7060;43.770;4.008;2023-11-19T11:00:29;101652.31;;;14.34;62.86
13974;BME280;7060;43.770;4.008;2023-11-19T11:03:01;101649.72;;;14.42;63.23
13974;BME280;7060;43.770;4.008;2023-11-19T11:05:32;101645.44;;;14.49;63.02
13974;BME280;7060;43.770;4.008;2023-11-19T11:08:04;101638.22;;;14.59;62.26
13974;BME280;7060;43.770;4.008;2023-11-19T11:10:39;101638.84;;;14.71;62.07
13974;BME280;7060;43.770;4.008;2023-11-19T11:13:14;101629.19;;;14.78;62.39
13974;BME280;7060;43.770;4.008;2023-11-19T11:15:44;101630.78;;;14.88;61.92
13974;BME280;7060;43.770;4.008;2023-11-19T11:18:14;101627.19;;;14.98;61.90
13974;BME280;7060;43.770;4.008;2023-11-19T11:20:46;101620.75;;;15.08;61.55
13974;BME280;7060;43.770;4.008;2023-11-19T11:23:45;101612.03;;;15.14;61.25
13974;BME280;7060;43.770;4.008;2023-11-19T11:26:35;101607.03;;;15.19;61.21
13974;BME280;7060;43.770;4.008;2023-11-19T11:29:16;101602.56;;;15.28;60.85
13974;BME280;7060;43.770;4.008;2023-11-19T11:31:53;101612.56;;;15.36;60.60
13974;BME280;7060;43.770;4.008;2023-11-19T11:34:51;101608.06;;;15.44;60.50
13974;BME280;7060;43.770;4.008;2023-11-19T11:37:31;101612.00;;;15.50;60.93
13974;BME280;7060;43.770;4.008;2023-11-19T11:40:02;101522.72;;;15.01;61.34
13974;BME280;7060;43.770;4.008;2023-11-19T11:42:38;101600.13;;;15.61;60.41
13974;BME280;7060;43.770;4.008;2023-11-19T11:45:09;101592.47;;;15.66;60.23
13974;BME280;7060;43.770;4.008;2023-11-19T11:50:57;101586.25;;;15.73;59.92
13974;BME280;7060;43.770;4.008;2023-11-19T11:53:30;101580.06;;;15.81;60.47
13974;BME280;7060;43.770;4.008;2023-11-19T11:55:59;101574.38;;;15.84;60.41
13974;BME280;7060;43.770;4.008;2023-11-19T11:58:31;101585.38;;;15.90;59.95
13974;BME280;7060;43.770;4.008;2023-11-19T12:01:02;101567.66;;;15.96;60.08
13974;BME280;7060;43.770;4.008;2023-11-19T12:03:34;101557.41;;;16.00;60.07
13974;BME280;7060;43.770;4.008;2023-11-19T12:06:04;101559.63;;;16.04;59.78
13974;BME280;7060;43.770;4.008;2023-11-19T12:08:35;101550.75;;;16.12;59.75
13974;BME280;7060;43.770;4.008;2023-11-19T12:11:07;101552.28;;;16.14;59.44
13974;BME280;7060;43.770;4.008;2023-11-19T12:13:47;101551.28;;;16.23;59.43
13974;BME280;7060;43.770;4.008;2023-11-19T12:16:17;101546.72;;;16.24;59.60
13974;BME280;7060;43.770;4.008;2023-11-19T12:18:45;101543.38;;;16.30;58.79
13974;BME280;7060;43.770;4.008;2023-11-19T12:21:28;101522.13;;;16.27;58.05
13974;BME280;7060;43.770;4.008;2023-11-19T12:23:59;101536.34;;;16.45;58.52
13974;BME280;7060;43.770;4.008;2023-11-19T12:26:38;101530.47;;;16.50;58.70
13974;BME280;7060;43.770;4.008;2023-11-19T12:29:07;101530.78;;;16.55;58.54
13974;BME280;7060;43.770;4.008;2023-11-19T12:31:37;101533.84;;;16.60;58.84
13974;BME280;7060;43.770;4.008;2023-11-19T12:34:09;101526.13;;;16.65;58.67
13974;BME280;7060;43.770;4.008;2023-11-19T12:36:41;101518.34;;;16.62;58.68
13974;BME280;7060;43.770;4.008;2023-11-19T12:39:12;101525.66;;;16.78;57.84
13974;BME280;7060;43.770;4.008;2023-11-19T12:41:53;101519.91;;;16.89;56.84
13974;BME280;7060;43.770;4.008;2023-11-19T12:44:22;101523.63;;;16.96;57.29
13974;BME280;7060;43.770;4.008;2023-11-19T12:47:01;101517.56;;;17.02;57.24
13974;BME280;7060;43.770;4.008;2023-11-19T12:49:30;101512.84;;;17.04;57.53
13974;BME280;7060;43.770;4.008;2023-11-19T12:51:59;101516.03;;;17.08;57.27
13974;BME280;7060;43.770;4.008;2023-11-19T12:54:36;101480.59;;;17.03;56.83
13974;BME280;7060;43.770;4.008;2023-11-19T12:57:05;101512.31;;;17.25;56.34
13974;BME280;7060;43.770;4.008;2023-11-19T12:59:35;101499.63;;;17.34;56.38
13974;BME280;7060;43.770;4.008;2023-11-19T13:02:05;101466.38;;;17.25;56.91
13974;BME280;7060;43.770;4.008;2023-11-19T13:04:35;101500.28;;;17.44;57.18
13974;BME280;7060;43.770;4.008;2023-11-19T13:07:04;101499.09;;;17.46;56.59
13974;BME280;7060;43.770;4.008;2023-11-19T13:09:33;101498.75;;;17.49;56.50
13974;BME280;7060;43.770;4.008;2023-11-19T13:12:12;101495.03;;;17.50;56.75
13974;BME280;7060;43.770;4.008;2023-11-19T13:14:41;101452.69;;;17.26;56.50
13974;BME280;7060;43.770;4.008;2023-11-19T13:17:14;101482.19;;;17.52;56.37
13974;BME280;7060;43.770;4.008;2023-11-19T13:19:47;101474.41;;;17.57;56.15
13974;BME280;7060;43.770;4.008;2023-11-19T13:22:18;101470.69;;;17.58;55.67
13974;BME280;7060;43.770;4.008;2023-11-19T13:24:47;101479.13;;;17.64;55.73
13974;BME280;7060;43.770;4.008;2023-11-19T13:27:17;101474.41;;;17.66;55.78
13974;BME280;7060;43.770;4.008;2023-11-19T13:29:46;101472.72;;;17.65;55.62